sensor_id;sensor_type;location;lat;lon;timestamp;P1;durP1;ratioP1;P2;durP2;ratioP2
6983;SDS011;3532;51.118;7.210;2023-04-15T00:02:18;9.13;;;4.30;;
6983;SDS011;3532;51.118;7.210;2023-04-15T00:04:44;8.20;;;4.90;;
6983;SDS011;3532;51.118;7.210;2023-04-15T00:07:10;6.37;;;4.53;;
6983;SDS011;3532;51.118;7.210;2023-04-15T00:09:35;5.73;;;4.30;;
6983;SDS011;3532;51.118;7.210;2023-04-15T00:12:01;5.07;;;3.93;;
6983;SDS011;3532;51.118;7.210;2023-04-15T00:14:26;7.27;;;4.27;;
6983;SDS011;3532;51.118;7.210;2023-04-15T00:16:52;4.20;;;3.80;;
6983;SDS011;3532;51.118;7.210;2023-04-15T00:19:20;6.17;;;3.83;;
6983;SDS011;3532;51.118;7.210;2023-04-15T00:21:45;11.50;;;4.87;;
6983;SDS011;3532;51.118;7.210;2023-04-15T00:24:11;5.87;;;3.77;;
6983;SDS011;3532;51.118;7.210;2023-04-15T00:26:37;5.20;;;4.70;;
6983;SDS011;3532;51.118;7.210;2023-04-15T00:29:03;5.07;;;4.00;;
6983;SDS011;3532;51.118;7.210;2023-04-15T00:31:28;4.80;;;4.20;;
6983;SDS011;3532;51.118;7.210;2023-04-15T00:33:54;6.40;;;4.30;;
6983;SDS011;3532;51.118;7.210;2023-04-15T00:36:20;7.50;;;4.83;;
6983;SDS011;3532;51.118;7.210;2023-04-15T00:38:45;6.17;;;4.27;;
6983;SDS011;3532;51.118;7.210;2023-04-15T00:41:10;4.40;;;3.97;;
6983;SDS011;3532;51.118;7.210;2023-04-15T00:43:36;5.23;;;4.60;;
6983;SDS011;3532;51.118;7.210;2023-04-15T00:46:03;8.80;;;4.90;;
6983;SDS011;3532;51.118;7.210;2023-04-15T00:48:28;4.07;;;3.77;;
6983;SDS011;3532;51.118;7.210;2023-04-15T00:50:54;7.17;;;4.67;;
6983;SDS011;3532;51.118;7.210;2023-04-15T00:53:19;6.80;;;5.23;;
6983;SDS011;3532;51.118;7.210;2023-04-15T00:55:44;6.03;;;4.23;;
6983;SDS011;3532;51.118;7.210;2023-04-15T00:58:10;6.53;;;4.57;;
6983;SDS011;3532;51.118;7.210;2023-04-15T01:00:35;5.47;;;3.87;;
6983;SDS011;3532;51.118;7.210;2023-04-15T01:03:01;7.00;;;5.13;;
6983;SDS011;3532;51.118;7.210;2023-04-15T01:05:27;7.00;;;4.60;;
6983;SDS011;3532;51.118;7.210;2023-04-15T01:07:52;7.93;;;4.47;;
6983;SDS011;3532;51.118;7.210;2023-04-15T01:10:19;7.43;;;4.70;;
6983;SDS011;3532;51.118;7.210;2023-04-15T01:12:44;5.23;;;4.43;;
6983;SDS011;3532;51.118;7.210;2023-04-15T01:15:09;5.43;;;4.43;;
6983;SDS011;3532;51.118;7.210;2023-04-15T01:17:35;7.80;;;4.83;;
6983;SDS011;3532;51.118;7.210;2023-04-15T01:20:01;8.23;;;5.67;;
6983;SDS011;3532;51.118;7.210;2023-04-15T01:22:26;5.87;;;4.93;;
6983;SDS011;3532;51.118;7.210;2023-04-15T01:25:00;8.07;;;4.37;;
6983;SDS011;3532;51.118;7.210;2023-04-15T01:27:30;6.80;;;5.90;;
6983;SDS011;3532;51.118;7.210;2023-04-15T01:29:56;9.03;;;5.17;;
6983;SDS011;3532;51.118;7.210;2023-04-15T01:32:22;10.73;;;5.07;;
6983;SDS011;3532;51.118;7.210;2023-04-15T01:34:48;6.47;;;4.87;;
6983;SDS011;3532;51.118;7.210;2023-04-15T01:37:13;4.93;;;4.40;;
6983;SDS011;3532;51.118;7.210;2023-04-15T01:39:39;7.13;;;4.20;;
6983;SDS011;3532;51.118;7.210;2023-04-15T01:42:04;8.80;;;5.40;;
6983;SDS011;3532;51.118;7.210;2023-04-15T01:44:30;5.33;;;4.83;;
6983;SDS011;3532;51.118;7.210;2023-04-15T01:46:56;5.93;;;4.93;;
6983;SDS011;3532;51.118;7.210;2023-04-15T01:49:21;6.30;;;4.93;;
6983;SDS011;3532;51.118;7.210;2023-04-15T01:51:47;6.27;;;5.67;;
6983;SDS011;3532;51.118;7.210;2023-04-15T01:54:12;5.60;;;5.03;;
6983;SDS011;3532;51.118;7.210;2023-04-15T01:56:37;9.00;;;5.07;;
6983;SDS011;3532;51.118;7.210;2023-04-15T01:59:03;9.00;;;5.60;;
6983;SDS011;3532;51.118;7.210;2023-04-15T02:01:28;7.33;;;6.23;;
6983;SDS011;3532;51.118;7.210;2023-04-15T02:03:53;6.33;;;5.70;;
6983;SDS011;3532;51.118;7.210;2023-04-15T02:06:19;7.40;;;5.67;;
6983;SDS011;3532;51.118;7.210;2023-04-15T02:08:44;5.90;;;4.93;;
6983;SDS011;3532;51.118;7.210;2023-04-15T02:11:10;9.07;;;5.13;;
6983;SDS011;3532;51.118;7.210;2023-04-15T02:13:35;9.63;;;6.33;;
6983;SDS011;3532;51.118;7.210;2023-04-15T02:16:01;5.67;;;5.17;;
6983;SDS011;3532;51.118;7.210;2023-04-15T02:18:27;9.60;;;5.33;;
6983;SDS011;3532;51.118;7.210;2023-04-15T02:20:52;8.63;;;5.50;;
6983;SDS011;3532;51.118;7.210;2023-04-15T02:23:18;7.37;;;5.83;;
6983;SDS011;3532;51.118;7.210;2023-04-15T02:25:43;5.83;;;5.33;;
6983;SDS011;3532;51.118;7.210;2023-04-15T02:28:08;6.10;;;5.53;;
6983;SDS011;3532;51.118;7.210;2023-04-15T02:30:34;7.33;;;6.10;;
6983;SDS011;3532;51.118;7.210;2023-04-15T02:32:59;8.83;;;6.43;;
6983;SDS011;3532;51.118;7.210;2023-04-15T02:35:25;8.60;;;5.60;;
6983;SDS011;3532;51.118;7.210;2023-04-15T02:37:50;6.67;;;5.97;;
6983;SDS011;3532;51.118;7.210;2023-04-15T02:40:16;7.57;;;5.87;;
6983;SDS011;3532;51.118;7.210;2023-04-15T02:42:42;6.60;;;5.97;;
6983;SDS011;3532;51.118;7.210;2023-04-15T02:45:08;9.23;;;7.27;;
6983;SDS011;3532;51.118;7.210;2023-04-15T02:47:34;7.57;;;6.20;;
6983;SDS011;3532;51.118;7.210;2023-04-15T02:50:01;7.17;;;6.47;;
6983;SDS011;3532;51.118;7.210;2023-04-15T02:52:31;7.87;;;6.73;;
6983;SDS011;3532;51.118;7.210;2023-04-15T02:54:56;6.77;;;6.03;;
6983;SDS011;3532;51.118;7.210;2023-04-15T02:57:26;7.87;;;5.47;;
6983;SDS011;3532;51.118;7.210;2023-04-15T02:59:53;9.40;;;6.77;;
6983;SDS011;3532;51.118;7.210;2023-04-15T03:02:18;9.83;;;6.00;;
6983;SDS011;3532;51.118;7.210;2023-04-15T03:04:43;6.20;;;5.53;;
6983;SDS011;3532;51.118;7.210;2023-04-15T03:07:09;7.70;;;6.90;;
6983;SDS011;3532;51.118;7.210;2023-04-15T03:09:34;7.63;;;6.43;;
6983;SDS011;3532;51.118;7.210;2023-04-15T03:12:00;7.00;;;6.40;;
6983;SDS011;3532;51.118;7.210;2023-04-15T03:14:25;9.50;;;6.70;;
6983;SDS011;3532;51.118;7.210;2023-04-15T03:16:51;8.63;;;6.70;;
6983;SDS011;3532;51.118;7.210;2023-04-15T03:19:16;6.70;;;6.10;;
6983;SDS011;3532;51.118;7.210;2023-04-15T03:21:41;7.20;;;6.20;;
6983;SDS011;3532;51.118;7.210;2023-04-15T03:24:07;9.03;;;6.73;;
6983;SDS011;3532;51.118;7.210;2023-04-15T03:26:32;9.93;;;6.53;;
6983;SDS011;3532;51.118;7.210;2023-04-15T03:28:57;7.07;;;5.87;;
6983;SDS011;3532;51.118;7.210;2023-04-15T03:31:23;8.07;;;6.73;;
6983;SDS011;3532;51.118;7.210;2023-04-15T03:33:48;6.97;;;6.27;;
6983;SDS011;3532;51.118;7.210;2023-04-15T03:36:14;7.13;;;6.43;;
6983;SDS011;3532;51.118;7.210;2023-04-15T03:38:39;9.47;;;6.47;;
6983;SDS011;3532;51.118;7.210;2023-04-15T03:41:05;6.93;;;6.30;;
6983;SDS011;3532;51.118;7.210;2023-04-15T03:43:31;7.70;;;5.87;;
6983;SDS011;3532;51.118;7.210;2023-04-15T03:45:56;7.80;;;6.53;;
6983;SDS011;3532;51.118;7.210;2023-04-15T03:48:21;8.63;;;6.73;;
6983;SDS011;3532;51.118;7.210;2023-04-15T03:50:46;9.77;;;7.00;;
6983;SDS011;3532;51.118;7.210;2023-04-15T03:53:12;7.90;;;6.83;;
6983;SDS011;3532;51.118;7.210;2023-04-15T03:55:37;11.90;;;7.60;;
6983;SDS011;3532;51.118;7.210;2023-04-15T03:58:03;7.20;;;6.50;;
6983;SDS011;3532;51.118;7.210;2023-04-15T04:00:28;8.30;;;6.70;;
6983;SDS011;3532;51.118;7.210;2023-04-15T04:02:53;6.60;;;5.57;;
6983;SDS011;3532;51.118;7.210;2023-04-15T04:05:18;7.53;;;6.83;;
6983;SDS011;3532;51.118;7.210;2023-04-15T04:07:44;6.80;;;5.90;;
6983;SDS011;3532;51.118;7.210;2023-04-15T04:10:09;5.87;;;5.17;;
6983;SDS011;3532;51.118;7.210;2023-04-15T04:12:35;8.50;;;6.57;;
6983;SDS011;3532;51.118;7.210;2023-04-15T04:15:00;6.90;;;6.20;;
6983;SDS011;3532;51.118;7.210;2023-04-15T04:17:25;6.80;;;6.20;;
6983;SDS011;3532;51.118;7.210;2023-04-15T04:19:51;6.23;;;5.63;;
6983;SDS011;3532;51.118;7.210;2023-04-15T04:22:16;6.67;;;6.00;;
6983;SDS011;3532;51.118;7.210;2023-04-15T04:24:41;7.83;;;6.20;;
6983;SDS011;3532;51.118;7.210;2023-04-15T04:27:07;8.50;;;5.83;;
6983;SDS011;3532;51.118;7.210;2023-04-15T04:29:32;8.83;;;6.83;;
6983;SDS011;3532;51.118;7.210;2023-04-15T04:31:57;7.87;;;6.57;;
6983;SDS011;3532;51.118;7.210;2023-04-15T04:34:23;8.27;;;6.03;;
6983;SDS011;3532;51.118;7.210;2023-04-15T04:36:48;7.23;;;6.53;;
6983;SDS011;3532;51.118;7.210;2023-04-15T04:39:13;7.63;;;5.83;;
6983;SDS011;3532;51.118;7.210;2023-04-15T04:41:39;7.17;;;6.40;;
6983;SDS011;3532;51.118;7.210;2023-04-15T04:44:04;7.80;;;7.03;;
6983;SDS011;3532;51.118;7.210;2023-04-15T04:46:29;7.53;;;5.77;;
6983;SDS011;3532;51.118;7.210;2023-04-15T04:48:55;7.50;;;6.50;;
6983;SDS011;3532;51.118;7.210;2023-04-15T04:51:20;7.20;;;5.80;;
6983;SDS011;3532;51.118;7.210;2023-04-15T04:53:45;8.37;;;6.37;;
6983;SDS011;3532;51.118;7.210;2023-04-15T04:56:10;7.80;;;6.67;;
6983;SDS011;3532;51.118;7.210;2023-04-15T04:58:36;8.23;;;6.50;;
6983;SDS011;3532;51.118;7.210;2023-04-15T05:01:02;8.93;;;6.40;;
6983;SDS011;3532;51.118;7.210;2023-04-15T05:03:27;8.33;;;6.37;;
6983;SDS011;3532;51.118;7.210;2023-04-15T05:05:53;7.00;;;6.10;;
6983;SDS011;3532;51.118;7.210;2023-04-15T05:08:18;6.60;;;6.00;;
6983;SDS011;3532;51.118;7.210;2023-04-15T05:10:44;7.13;;;5.83;;
6983;SDS011;3532;51.118;7.210;2023-04-15T05:13:09;7.23;;;6.33;;
6983;SDS011;3532;51.118;7.210;2023-04-15T05:15:35;7.30;;;6.60;;
6983;SDS011;3532;51.118;7.210;2023-04-15T05:18:01;8.47;;;6.50;;
6983;SDS011;3532;51.118;7.210;2023-04-15T05:20:26;8.67;;;5.90;;
6983;SDS011;3532;51.118;7.210;2023-04-15T05:22:51;9.03;;;7.20;;
6983;SDS011;3532;51.118;7.210;2023-04-15T05:25:17;8.63;;;7.83;;
6983;SDS011;3532;51.118;7.210;2023-04-15T05:27:42;13.63;;;8.67;;
6983;SDS011;3532;51.118;7.210;2023-04-15T05:30:08;14.17;;;8.47;;
6983;SDS011;3532;51.118;7.210;2023-04-15T05:32:33;9.50;;;8.50;;
6983;SDS011;3532;51.118;7.210;2023-04-15T05:34:59;11.00;;;8.23;;
6983;SDS011;3532;51.118;7.210;2023-04-15T05:37:24;9.67;;;8.70;;
6983;SDS011;3532;51.118;7.210;2023-04-15T05:39:50;10.17;;;8.57;;
6983;SDS011;3532;51.118;7.210;2023-04-15T05:42:16;9.60;;;8.63;;
6983;SDS011;3532;51.118;7.210;2023-04-15T05:44:41;9.63;;;8.63;;
6983;SDS011;3532;51.118;7.210;2023-04-15T05:47:06;10.90;;;8.53;;
6983;SDS011;3532;51.118;7.210;2023-04-15T05:49:32;10.20;;;7.87;;
6983;SDS011;3532;51.118;7.210;2023-04-15T05:51:58;9.67;;;8.03;;
6983;SDS011;3532;51.118;7.210;2023-04-15T05:54:23;9.83;;;8.90;;
6983;SDS011;3532;51.118;7.210;2023-04-15T05:56:48;9.33;;;8.43;;
6983;SDS011;3532;51.118;7.210;2023-04-15T05:59:14;10.77;;;9.20;;
6983;SDS011;3532;51.118;7.210;2023-04-15T06:01:39;8.73;;;7.70;;
6983;SDS011;3532;51.118;7.210;2023-04-15T06:04:04;9.70;;;8.40;;
6983;SDS011;3532;51.118;7.210;2023-04-15T06:06:30;11.33;;;8.40;;
6983;SDS011;3532;51.118;7.210;2023-04-15T06:08:56;9.40;;;8.40;;
6983;SDS011;3532;51.118;7.210;2023-04-15T06:11:22;10.13;;;9.03;;
6983;SDS011;3532;51.118;7.210;2023-04-15T06:13:47;9.60;;;8.53;;
6983;SDS011;3532;51.118;7.210;2023-04-15T06:16:13;10.30;;;8.47;;
6983;SDS011;3532;51.118;7.210;2023-04-15T06:18:38;10.07;;;8.13;;
6983;SDS011;3532;51.118;7.210;2023-04-15T06:21:03;9.57;;;8.60;;
6983;SDS011;3532;51.118;7.210;2023-04-15T06:23:29;9.53;;;8.23;;
6983;SDS011;3532;51.118;7.210;2023-04-15T06:25:55;9.70;;;8.50;;
6983;SDS011;3532;51.118;7.210;2023-04-15T06:28:20;11.27;;;7.73;;
6983;SDS011;3532;51.118;7.210;2023-04-15T06:30:46;10.43;;;8.23;;
6983;SDS011;3532;51.118;7.210;2023-04-15T06:33:11;10.73;;;8.40;;
6983;SDS011;3532;51.118;7.210;2023-04-15T06:35:37;10.30;;;8.83;;
6983;SDS011;3532;51.118;7.210;2023-04-15T06:38:03;9.67;;;8.70;;
6983;SDS011;3532;51.118;7.210;2023-04-15T06:40:28;13.13;;;9.27;;
6983;SDS011;3532;51.118;7.210;2023-04-15T06:42:53;11.47;;;9.33;;
6983;SDS011;3532;51.118;7.210;2023-04-15T06:45:19;9.77;;;8.77;;
6983;SDS011;3532;51.118;7.210;2023-04-15T06:47:44;8.60;;;7.70;;
6983;SDS011;3532;51.118;7.210;2023-04-15T06:50:10;8.07;;;7.27;;
6983;SDS011;3532;51.118;7.210;2023-04-15T06:52:36;8.20;;;7.40;;
6983;SDS011;3532;51.118;7.210;2023-04-15T06:55:01;8.17;;;7.03;;
6983;SDS011;3532;51.118;7.210;2023-04-15T06:57:27;9.27;;;6.87;;
6983;SDS011;3532;51.118;7.210;2023-04-15T06:59:52;8.83;;;6.50;;
6983;SDS011;3532;51.118;7.210;2023-04-15T07:02:18;8.53;;;6.77;;
6983;SDS011;3532;51.118;7.210;2023-04-15T07:04:43;7.33;;;6.63;;
6983;SDS011;3532;51.118;7.210;2023-04-15T07:07:09;7.50;;;6.43;;
6983;SDS011;3532;51.118;7.210;2023-04-15T07:09:34;7.27;;;6.50;;
6983;SDS011;3532;51.118;7.210;2023-04-15T07:12:00;6.07;;;5.50;;
6983;SDS011;3532;51.118;7.210;2023-04-15T07:14:25;5.70;;;5.10;;
6983;SDS011;3532;51.118;7.210;2023-04-15T07:16:50;6.33;;;5.67;;
6983;SDS011;3532;51.118;7.210;2023-04-15T07:19:15;8.33;;;6.67;;
6983;SDS011;3532;51.118;7.210;2023-04-15T07:21:41;6.97;;;6.33;;
6983;SDS011;3532;51.118;7.210;2023-04-15T07:24:06;6.77;;;5.20;;
6983;SDS011;3532;51.118;7.210;2023-04-15T07:26:32;6.80;;;5.60;;
6983;SDS011;3532;51.118;7.210;2023-04-15T07:28:58;5.67;;;5.17;;
6983;SDS011;3532;51.118;7.210;2023-04-15T07:31:23;6.07;;;5.53;;
6983;SDS011;3532;51.118;7.210;2023-04-15T07:33:48;6.40;;;5.53;;
6983;SDS011;3532;51.118;7.210;2023-04-15T07:36:13;6.40;;;5.80;;
6983;SDS011;3532;51.118;7.210;2023-04-15T07:38:39;5.80;;;5.30;;
6983;SDS011;3532;51.118;7.210;2023-04-15T07:41:04;7.27;;;6.57;;
6983;SDS011;3532;51.118;7.210;2023-04-15T07:43:30;9.17;;;6.90;;
6983;SDS011;3532;51.118;7.210;2023-04-15T07:45:55;6.50;;;5.90;;
6983;SDS011;3532;51.118;7.210;2023-04-15T07:48:20;6.40;;;5.80;;
6983;SDS011;3532;51.118;7.210;2023-04-15T07:50:45;5.97;;;5.47;;
6983;SDS011;3532;51.118;7.210;2023-04-15T07:53:11;6.73;;;6.03;;
6983;SDS011;3532;51.118;7.210;2023-04-15T07:55:36;6.67;;;5.63;;
6983;SDS011;3532;51.118;7.210;2023-04-15T07:58:01;5.83;;;5.33;;
6983;SDS011;3532;51.118;7.210;2023-04-15T08:00:27;6.77;;;6.00;;
6983;SDS011;3532;51.118;7.210;2023-04-15T08:02:52;6.13;;;5.57;;
6983;SDS011;3532;51.118;7.210;2023-04-15T08:05:18;6.33;;;3.93;;
6983;SDS011;3532;51.118;7.210;2023-04-15T08:07:43;5.20;;;4.70;;
6983;SDS011;3532;51.118;7.210;2023-04-15T08:10:09;4.67;;;4.27;;
6983;SDS011;3532;51.118;7.210;2023-04-15T08:12:35;5.33;;;4.83;;
6983;SDS011;3532;51.118;7.210;2023-04-15T08:15:01;5.70;;;5.10;;
6983;SDS011;3532;51.118;7.210;2023-04-15T08:17:26;5.37;;;4.87;;
6983;SDS011;3532;51.118;7.210;2023-04-15T08:19:52;5.13;;;4.60;;
6983;SDS011;3532;51.118;7.210;2023-04-15T08:22:17;5.20;;;4.70;;
6983;SDS011;3532;51.118;7.210;2023-04-15T08:24:43;4.17;;;3.80;;
6983;SDS011;3532;51.118;7.210;2023-04-15T08:27:08;4.33;;;3.93;;
6983;SDS011;3532;51.118;7.210;2023-04-15T08:29:34;4.87;;;4.20;;
6983;SDS011;3532;51.118;7.210;2023-04-15T08:31:59;4.40;;;4.00;;
6983;SDS011;3532;51.118;7.210;2023-04-15T08:34:28;6.40;;;4.70;;
6983;SDS011;3532;51.118;7.210;2023-04-15T08:36:53;4.43;;;4.03;;
6983;SDS011;3532;51.118;7.210;2023-04-15T08:39:19;5.43;;;4.50;;
6983;SDS011;3532;51.118;7.210;2023-04-15T08:41:46;4.87;;;4.10;;
6983;SDS011;3532;51.118;7.210;2023-04-15T08:44:12;4.93;;;4.43;;
6983;SDS011;3532;51.118;7.210;2023-04-15T08:46:38;5.10;;;4.60;;
6983;SDS011;3532;51.118;7.210;2023-04-15T08:49:03;5.57;;;4.17;;
6983;SDS011;3532;51.118;7.210;2023-04-15T08:51:29;5.27;;;4.77;;
6983;SDS011;3532;51.118;7.210;2023-04-15T08:53:55;5.20;;;4.70;;
6983;SDS011;3532;51.118;7.210;2023-04-15T08:56:24;4.33;;;3.93;;
6983;SDS011;3532;51.118;7.210;2023-04-15T08:58:53;5.63;;;4.20;;
6983;SDS011;3532;51.118;7.210;2023-04-15T09:01:18;4.03;;;3.63;;
6983;SDS011;3532;51.118;7.210;2023-04-15T09:03:44;3.57;;;3.27;;
6983;SDS011;3532;51.118;7.210;2023-04-15T09:06:10;4.47;;;4.07;;
6983;SDS011;3532;51.118;7.210;2023-04-15T09:08:35;3.90;;;3.60;;
6983;SDS011;3532;51.118;7.210;2023-04-15T09:11:01;4.37;;;3.97;;
6983;SDS011;3532;51.118;7.210;2023-04-15T09:13:27;3.53;;;3.23;;
6983;SDS011;3532;51.118;7.210;2023-04-15T09:15:52;4.83;;;4.33;;
6983;SDS011;3532;51.118;7.210;2023-04-15T09:18:33;5.30;;;4.23;;
6983;SDS011;3532;51.118;7.210;2023-04-15T09:21:06;5.50;;;4.17;;
6983;SDS011;3532;51.118;7.210;2023-04-15T09:23:35;5.17;;;3.87;;
6983;SDS011;3532;51.118;7.210;2023-04-15T09:26:01;5.17;;;4.30;;
6983;SDS011;3532;51.118;7.210;2023-04-15T09:28:27;3.60;;;3.30;;
6983;SDS011;3532;51.118;7.210;2023-04-15T09:30:59;4.10;;;3.73;;
6983;SDS011;3532;51.118;7.210;2023-04-15T09:33:25;4.23;;;3.83;;
6983;SDS011;3532;51.118;7.210;2023-04-15T09:36:10;5.10;;;4.40;;
6983;SDS011;3532;51.118;7.210;2023-04-15T09:38:35;5.20;;;4.80;;
6983;SDS011;3532;51.118;7.210;2023-04-15T09:41:18;4.83;;;4.43;;
6983;SDS011;3532;51.118;7.210;2023-04-15T09:43:44;5.40;;;4.90;;
6983;SDS011;3532;51.118;7.210;2023-04-15T09:46:09;5.63;;;5.13;;
6983;SDS011;3532;51.118;7.210;2023-04-15T09:48:35;5.27;;;4.87;;
6983;SDS011;3532;51.118;7.210;2023-04-15T09:51:00;5.77;;;5.27;;
6983;SDS011;3532;51.118;7.210;2023-04-15T09:53:26;6.07;;;5.50;;
6983;SDS011;3532;51.118;7.210;2023-04-15T09:55:53;7.97;;;5.80;;
6983;SDS011;3532;51.118;7.210;2023-04-15T09:58:26;6.07;;;5.57;;
6983;SDS011;3532;51.118;7.210;2023-04-15T10:00:53;6.17;;;5.57;;
6983;SDS011;3532;51.118;7.210;2023-04-15T10:03:20;6.07;;;4.57;;
6983;SDS011;3532;51.118;7.210;2023-04-15T10:05:56;6.40;;;4.40;;
6983;SDS011;3532;51.118;7.210;2023-04-15T10:08:23;5.43;;;4.93;;
6983;SDS011;3532;51.118;7.210;2023-04-15T10:10:51;5.13;;;4.63;;
6983;SDS011;3532;51.118;7.210;2023-04-15T10:13:25;5.30;;;4.80;;
6983;SDS011;3532;51.118;7.210;2023-04-15T10:18:39;5.57;;;4.97;;
6983;SDS011;3532;51.118;7.210;2023-04-15T10:21:10;5.30;;;4.80;;
6983;SDS011;3532;51.118;7.210;2023-04-15T10:23:38;6.67;;;4.70;;
6983;SDS011;3532;51.118;7.210;2023-04-15T10:26:03;5.10;;;4.63;;
6983;SDS011;3532;51.118;7.210;2023-04-15T10:28:29;5.90;;;5.30;;
6983;SDS011;3532;51.118;7.210;2023-04-15T10:30:55;5.20;;;4.70;;
6983;SDS011;3532;51.118;7.210;2023-04-15T10:33:22;5.20;;;4.70;;
6983;SDS011;3532;51.118;7.210;2023-04-15T10:35:48;5.47;;;4.97;;
6983;SDS011;3532;51.118;7.210;2023-04-15T10:38:34;5.30;;;4.80;;
6983;SDS011;3532;51.118;7.210;2023-04-15T10:41:14;4.83;;;4.33;;
6983;SDS011;3532;51.118;7.210;2023-04-15T10:44:03;5.63;;;5.13;;
6983;SDS011;3532;51.118;7.210;2023-04-15T10:46:41;5.20;;;4.77;;
6983;SDS011;3532;51.118;7.210;2023-04-15T10:49:09;5.53;;;5.03;;
6983;SDS011;3532;51.118;7.210;2023-04-15T10:51:42;7.77;;;7.00;;
6983;SDS011;3532;51.118;7.210;2023-04-15T10:56:40;6.77;;;6.17;;
6983;SDS011;3532;51.118;7.210;2023-04-15T10:59:06;5.77;;;5.20;;
6983;SDS011;3532;51.118;7.210;2023-04-15T11:07:34;5.43;;;4.93;;
6983;SDS011;3532;51.118;7.210;2023-04-15T11:13:01;5.97;;;5.47;;
6983;SDS011;3532;51.118;7.210;2023-04-15T11:15:28;6.27;;;5.70;;
6983;SDS011;3532;51.118;7.210;2023-04-15T11:17:58;5.97;;;5.47;;
6983;SDS011;3532;51.118;7.210;2023-04-15T11:20:33;6.93;;;6.23;;
6983;SDS011;3532;51.118;7.210;2023-04-15T11:22:58;6.70;;;6.10;;
6983;SDS011;3532;51.118;7.210;2023-04-15T11:25:24;7.17;;;6.47;;
6983;SDS011;3532;51.118;7.210;2023-04-15T11:27:50;7.27;;;6.57;;
6983;SDS011;3532;51.118;7.210;2023-04-15T11:30:20;6.87;;;6.17;;
6983;SDS011;3532;51.118;7.210;2023-04-15T11:32:47;7.20;;;6.53;;
6983;SDS011;3532;51.118;7.210;2023-04-15T11:35:13;7.63;;;6.93;;
6983;SDS011;3532;51.118;7.210;2023-04-15T11:37:40;8.03;;;7.33;;
6983;SDS011;3532;51.118;7.210;2023-04-15T11:40:06;7.30;;;6.60;;
6983;SDS011;3532;51.118;7.210;2023-04-15T11:42:31;7.73;;;6.67;;
6983;SDS011;3532;51.118;7.210;2023-04-15T11:45:10;7.10;;;6.40;;
6983;SDS011;3532;51.118;7.210;2023-04-15T11:47:36;7.60;;;6.80;;
6983;SDS011;3532;51.118;7.210;2023-04-15T11:50:18;6.87;;;6.27;;
6983;SDS011;3532;51.118;7.210;2023-04-15T11:52:54;6.73;;;6.13;;
6983;SDS011;3532;51.118;7.210;2023-04-15T11:55:20;7.73;;;7.03;;
6983;SDS011;3532;51.118;7.210;2023-04-15T11:57:47;6.30;;;5.70;;
6983;SDS011;3532;51.118;7.210;2023-04-15T12:00:14;7.47;;;6.77;;
6983;SDS011;3532;51.118;7.210;2023-04-15T12:02:41;6.77;;;5.97;;
6983;SDS011;3532;51.118;7.210;2023-04-15T12:05:07;8.63;;;6.67;;
6983;SDS011;3532;51.118;7.210;2023-04-15T12:07:34;8.27;;;7.43;;
6983;SDS011;3532;51.118;7.210;2023-04-15T12:10:23;9.47;;;8.47;;
6983;SDS011;3532;51.118;7.210;2023-04-15T12:12:50;9.10;;;8.13;;
6983;SDS011;3532;51.118;7.210;2023-04-15T12:15:16;8.00;;;7.30;;
6983;SDS011;3532;51.118;7.210;2023-04-15T12:17:41;6.93;;;6.33;;
6983;SDS011;3532;51.118;7.210;2023-04-15T12:20:07;7.43;;;6.73;;
6983;SDS011;3532;51.118;7.210;2023-04-15T12:22:36;7.30;;;6.60;;
6983;SDS011;3532;51.118;7.210;2023-04-15T12:25:01;9.37;;;8.47;;
6983;SDS011;3532;51.118;7.210;2023-04-15T12:27:27;8.33;;;7.53;;
6983;SDS011;3532;51.118;7.210;2023-04-15T12:29:54;11.30;;;8.63;;
6983;SDS011;3532;51.118;7.210;2023-04-15T12:32:28;8.17;;;6.87;;
6983;SDS011;3532;51.118;7.210;2023-04-15T12:34:53;7.60;;;6.90;;
6983;SDS011;3532;51.118;7.210;2023-04-15T12:37:19;7.97;;;7.20;;
6983;SDS011;3532;51.118;7.210;2023-04-15T12:39:45;8.43;;;7.60;;
6983;SDS011;3532;51.118;7.210;2023-04-15T12:42:13;10.03;;;8.23;;
6983;SDS011;3532;51.118;7.210;2023-04-15T12:44:39;8.33;;;7.17;;
6983;SDS011;3532;51.118;7.210;2023-04-15T12:47:05;8.77;;;7.97;;
6983;SDS011;3532;51.118;7.210;2023-04-15T12:49:31;9.77;;;8.73;;
6983;SDS011;3532;51.118;7.210;2023-04-15T12:51:57;11.33;;;10.20;;
6983;SDS011;3532;51.118;7.210;2023-04-15T12:54:24;13.50;;;12.20;;
6983;SDS011;3532;51.118;7.210;2023-04-15T12:56:51;10.57;;;7.43;;
6983;SDS011;3532;51.118;7.210;2023-04-15T12:59:16;7.30;;;6.50;;
6983;SDS011;3532;51.118;7.210;2023-04-15T13:01:42;7.97;;;7.17;;
6983;SDS011;3532;51.118;7.210;2023-04-15T13:04:08;8.27;;;6.50;;
6983;SDS011;3532;51.118;7.210;2023-04-15T13:06:34;7.60;;;6.80;;
6983;SDS011;3532;51.118;7.210;2023-04-15T13:08:59;7.33;;;6.63;;
6983;SDS011;3532;51.118;7.210;2023-04-15T13:11:25;7.40;;;6.53;;
6983;SDS011;3532;51.118;7.210;2023-04-15T13:13:51;8.60;;;7.80;;
6983;SDS011;3532;51.118;7.210;2023-04-15T13:16:17;7.97;;;7.17;;
6983;SDS011;3532;51.118;7.210;2023-04-15T13:18:42;7.93;;;7.20;;
6983;SDS011;3532;51.118;7.210;2023-04-15T13:21:09;7.90;;;7.17;;
6983;SDS011;3532;51.118;7.210;2023-04-15T13:23:35;7.60;;;6.67;;
6983;SDS011;3532;51.118;7.210;2023-04-15T13:26:00;9.20;;;8.27;;
6983;SDS011;3532;51.118;7.210;2023-04-15T13:28:25;9.07;;;8.17;;
6983;SDS011;3532;51.118;7.210;2023-04-15T13:30:51;7.97;;;7.17;;
6983;SDS011;3532;51.118;7.210;2023-04-15T13:33:16;8.70;;;7.80;;
6983;SDS011;3532;51.118;7.210;2023-04-15T13:35:42;9.27;;;8.37;;
6983;SDS011;3532;51.118;7.210;2023-04-15T13:38:07;7.87;;;7.13;;
6983;SDS011;3532;51.118;7.210;2023-04-15T13:40:33;8.43;;;7.63;;
6983;SDS011;3532;51.118;7.210;2023-04-15T13:42:58;8.23;;;7.43;;
6983;SDS011;3532;51.118;7.210;2023-04-15T13:45:24;10.27;;;8.63;;
6983;SDS011;3532;51.118;7.210;2023-04-15T13:47:50;9.73;;;8.83;;
6983;SDS011;3532;51.118;7.210;2023-04-15T13:50:15;10.30;;;9.20;;
6983;SDS011;3532;51.118;7.210;2023-04-15T13:52:40;9.87;;;8.97;;
6983;SDS011;3532;51.118;7.210;2023-04-15T13:55:06;9.77;;;8.83;;
6983;SDS011;3532;51.118;7.210;2023-04-15T13:57:31;8.97;;;8.20;;
6983;SDS011;3532;51.118;7.210;2023-04-15T13:59:57;10.60;;;8.43;;
6983;SDS011;3532;51.118;7.210;2023-04-15T14:02:22;10.70;;;9.50;;
6983;SDS011;3532;51.118;7.210;2023-04-15T14:04:47;9.33;;;8.53;;
6983;SDS011;3532;51.118;7.210;2023-04-15T14:07:13;11.40;;;9.57;;
6983;SDS011;3532;51.118;7.210;2023-04-15T14:09:38;10.73;;;9.73;;
6983;SDS011;3532;51.118;7.210;2023-04-15T14:12:04;11.13;;;10.00;;
6983;SDS011;3532;51.118;7.210;2023-04-15T14:14:29;10.73;;;9.63;;
6983;SDS011;3532;51.118;7.210;2023-04-15T14:16:55;10.47;;;9.37;;
6983;SDS011;3532;51.118;7.210;2023-04-15T14:19:20;10.30;;;9.40;;
6983;SDS011;3532;51.118;7.210;2023-04-15T14:21:46;11.03;;;10.03;;
6983;SDS011;3532;51.118;7.210;2023-04-15T14:24:11;11.10;;;10.00;;
6983;SDS011;3532;51.118;7.210;2023-04-15T14:26:36;10.53;;;9.43;;
6983;SDS011;3532;51.118;7.210;2023-04-15T14:29:02;9.90;;;9.00;;
6983;SDS011;3532;51.118;7.210;2023-04-15T14:31:27;9.00;;;8.20;;
6983;SDS011;3532;51.118;7.210;2023-04-15T14:33:52;10.13;;;8.13;;
6983;SDS011;3532;51.118;7.210;2023-04-15T14:36:17;9.80;;;8.80;;
6983;SDS011;3532;51.118;7.210;2023-04-15T14:38:43;10.43;;;9.20;;
6983;SDS011;3532;51.118;7.210;2023-04-15T14:41:08;9.07;;;8.27;;
6983;SDS011;3532;51.118;7.210;2023-04-15T14:43:34;9.97;;;9.07;;
6983;SDS011;3532;51.118;7.210;2023-04-15T14:45:59;9.43;;;8.43;;
6983;SDS011;3532;51.118;7.210;2023-04-15T14:48:25;9.80;;;8.90;;
6983;SDS011;3532;51.118;7.210;2023-04-15T14:50:51;9.23;;;8.43;;
6983;SDS011;3532;51.118;7.210;2023-04-15T14:53:16;9.77;;;8.83;;
6983;SDS011;3532;51.118;7.210;2023-04-15T14:55:42;9.80;;;8.73;;
6983;SDS011;3532;51.118;7.210;2023-04-15T14:58:07;13.37;;;10.23;;
6983;SDS011;3532;51.118;7.210;2023-04-15T15:00:33;9.23;;;8.30;;
6983;SDS011;3532;51.118;7.210;2023-04-15T15:02:58;10.13;;;9.23;;
6983;SDS011;3532;51.118;7.210;2023-04-15T15:05:24;9.13;;;8.33;;
6983;SDS011;3532;51.118;7.210;2023-04-15T15:07:49;10.17;;;9.27;;
6983;SDS011;3532;51.118;7.210;2023-04-15T15:10:14;9.77;;;8.83;;
6983;SDS011;3532;51.118;7.210;2023-04-15T15:12:40;9.57;;;8.67;;
6983;SDS011;3532;51.118;7.210;2023-04-15T15:15:05;9.47;;;7.33;;
6983;SDS011;3532;51.118;7.210;2023-04-15T15:17:31;8.20;;;7.37;;
6983;SDS011;3532;51.118;7.210;2023-04-15T15:19:56;8.20;;;7.40;;
6983;SDS011;3532;51.118;7.210;2023-04-15T15:22:21;9.63;;;7.00;;